Time;durP1;ratioP1;P1;durP2;ratioP2;P2;SDS_P1;SDS_P2;PMS_P1;PMS_P2;Temp;Humidity;BMP_temperature;BMP_pressure;BME280_temperature;BME280_humidity;BME280_pressure;Samples;Min_cycle;Max_cycle;Signal;HPM_P1;HPM_P2
2023/03/03 00:00:26;;;;;;;72.70;29.67;;;0.90;45.20;;;;;;5027245;28;20545;-52
2023/03/03 00:02:52;;;;;;;76.83;30.50;;;0.90;53.10;;;;;;5029589;28;20245;-52
2023/03/03 00:05:18;;;;;;;78.73;30.00;;;0.90;58.20;;;;;;5027355;28;20214;-52
2023/03/03 00:07:44;;;;;;;94.77;31.30;;;1.00;64.00;;;;;;5027912;28;20237;-52
2023/03/03 00:10:11;;;;;;;81.83;29.07;;;1.00;72.50;;;;;;5027669;28;20667;-52
2023/03/03 00:12:48;;;;;;;86.23;31.10;;;1.10;77.20;;;;;;5027366;28;20871;-53
2023/03/03 00:15:19;;;;;;;94.87;31.63;;;1.10;82.50;;;;;;5025649;28;20442;-52
2023/03/03 00:17:44;;;;;;;105.37;28.57;;;1.10;88.60;;;;;;5029821;28;20484;-53
2023/03/03 00:20:29;;;;;;;110.93;33.03;;;1.20;93.20;;;;;;5028059;28;20478;-52
2023/03/03 00:22:57;;;;;;;120.90;29.83;;;1.10;96.80;;;;;;5027487;28;20558;-52
2023/03/03 00:25:33;;;;;;;97.23;29.20;;;1.20;98.70;;;;;;5026130;28;20433;-52
2023/03/03 00:28:43;;;;;;;67.33;28.40;;;1.10;96.60;;;;;;5028909;28;20525;-52
2023/03/03 00:31:19;;;;;;;70.67;27.50;;;1.10;96.00;;;;;;5021647;28;20603;-52
2023/03/03 00:33:53;;;;;;;116.07;27.27;;;1.10;97.80;;;;;;5024949;28;20781;-53
2023/03/03 00:36:27;;;;;;;117.47;29.37;;;1.00;98.20;;;;;;5029124;28;20520;-52
2023/03/03 00:38:53;;;;;;;94.77;28.37;;;1.00;99.60;;;;;;5027354;28;20927;-52
2023/03/03 00:41:25;;;;;;;113.00;30.20;;;1.10;99.90;;;;;;5027408;28;20466;-52
2023/03/03 00:43:51;;;;;;;122.97;29.23;;;1.00;99.90;;;;;;5026444;28;20490;-53
2023/03/03 00:46:18;;;;;;;92.93;28.50;;;1.00;99.90;;;;;;5026512;28;20832;-52
2023/03/03 00:48:45;;;;;;;104.30;28.40;;;1.00;99.90;;;;;;5027524;28;20437;-52
2023/03/03 00:51:29;;;;;;;104.73;28.70;;;1.00;99.90;;;;;;5025065;28;20438;-52
2023/03/03 00:53:56;;;;;;;180.53;32.40;;;0.90;99.90;;;;;;5027588;28;20423;-52
2023/03/03 00:56:22;;;;;;;118.10;29.97;;;0.90;99.90;;;;;;5029521;28;20513;-53
2023/03/03 00:58:48;;;;;;;131.90;29.97;;;0.90;99.90;;;;;;5027162;28;21189;-53
2023/03/03 01:01:15;;;;;;;110.77;28.90;;;0.90;99.90;;;;;;5026885;28;20478;-52
2023/03/03 01:03:41;;;;;;;86.20;26.40;;;0.90;99.90;;;;;;5024848;28;20500;-53
2023/03/03 01:06:06;;;;;;;182.97;30.57;;;0.90;99.90;;;;;;5025450;28;20945;-52
2023/03/03 01:08:32;;;;;;;113.63;27.97;;;0.90;99.90;;;;;;5028284;28;20202;-52
2023/03/03 01:11:07;;;;;;;70.87;27.37;;;0.90;99.90;;;;;;5025000;28;20184;-53
2023/03/03 01:13:35;;;;;;;78.10;28.73;;;1.00;99.90;;;;;;5025857;28;20442;-51
2023/03/03 01:16:02;;;;;;;142.63;29.60;;;1.00;99.90;;;;;;5026228;28;20434;-52
2023/03/03 01:18:28;;;;;;;86.43;29.10;;;0.90;99.90;;;;;;5024928;28;20443;-52
2023/03/03 01:20:54;;;;;;;66.43;26.43;;;0.90;99.90;;;;;;5027114;28;20496;-52
2023/03/03 01:23:20;;;;;;;120.87;29.00;;;1.00;99.90;;;;;;5024033;28;20945;-52
2023/03/03 01:25:45;;;;;;;154.03;32.07;;;0.90;99.90;;;;;;5024507;28;20207;-52
2023/03/03 01:28:11;;;;;;;92.13;27.57;;;0.90;99.90;;;;;;5025044;28;23692;-52
2023/03/03 01:30:37;;;;;;;84.07;27.07;;;0.90;99.90;;;;;;5026284;28;20194;-53
2023/03/03 01:33:03;;;;;;;77.10;27.27;;;0.80;99.90;;;;;;5026415;28;20191;-52
2023/03/03 01:35:29;;;;;;;125.50;30.33;;;0.80;99.90;;;;;;5025083;28;20795;-52
2023/03/03 01:37:55;;;;;;;89.03;28.57;;;0.80;99.90;;;;;;5026239;28;20259;-52
2023/03/03 01:40:24;;;;;;;66.13;26.20;;;0.70;99.90;;;;;;5024386;28;20492;-52
2023/03/03 01:42:51;;;;;;;121.90;31.10;;;0.80;99.90;;;;;;5026264;28;20238;-53
2023/03/03 01:45:23;;;;;;;145.53;29.07;;;0.70;99.90;;;;;;5023363;28;20521;-53
2023/03/03 01:48:00;;;;;;;93.30;26.70;;;0.70;99.90;;;;;;5024804;28;20439;-52
2023/03/03 01:50:32;;;;;;;101.67;26.30;;;0.70;99.90;;;;;;5022798;28;20785;-53
2023/03/03 01:53:00;;;;;;;125.90;26.73;;;0.70;99.90;;;;;;5025519;28;20441;-53
2023/03/03 01:55:32;;;;;;;134.73;28.67;;;0.70;99.90;;;;;;5025477;28;20426;-53
2023/03/03 01:58:06;;;;;;;143.67;28.70;;;0.60;99.90;;;;;;5023396;28;20449;-52
2023/03/03 02:00:35;;;;;;;79.07;24.50;;;0.60;99.90;;;;;;5025609;28;20520;-52
2023/03/03 02:03:00;;;;;;;79.00;25.60;;;0.60;99.90;;;;;;5022748;28;20482;-52
2023/03/03 02:05:27;;;;;;;138.83;28.00;;;0.50;99.90;;;;;;5026047;28;20468;-53
2023/03/03 02:07:53;;;;;;;170.23;28.00;;;0.50;99.90;;;;;;5024151;28;20616;-53
2023/03/03 02:10:20;;;;;;;90.63;26.83;;;0.50;99.90;;;;;;5025669;28;20535;-52
2023/03/03 02:12:52;;;;;;;102.93;26.50;;;0.50;99.90;;;;;;5023930;28;20183;-52
2023/03/03 02:15:19;;;;;;;68.33;24.70;;;0.50;99.90;;;;;;5024956;28;20798;-53
2023/03/03 02:17:47;;;;;;;70.60;25.97;;;0.50;99.90;;;;;;5025129;28;20442;-53
2023/03/03 02:20:31;;;;;;;93.53;26.30;;;0.50;99.90;;;;;;5026782;28;20486;-53
2023/03/03 02:23:09;;;;;;;65.47;24.83;;;0.60;99.90;;;;;;5025029;28;20441;-53
2023/03/03 02:25:54;;;;;;;86.30;24.10;;;0.60;99.90;;;;;;5025702;28;20485;-52
2023/03/03 02:28:21;;;;;;;71.20;25.90;;;0.60;99.90;;;;;;5024108;28;20438;-53
2023/03/03 02:30:46;;;;;;;179.70;28.40;;;0.60;99.90;;;;;;5026119;28;20443;-53
2023/03/03 02:33:12;;;;;;;195.90;28.87;;;0.50;99.90;;;;;;5024701;28;20446;-53
2023/03/03 02:35:39;;;;;;;110.23;26.70;;;0.50;99.90;;;;;;5023429;28;20188;-52
2023/03/03 02:38:28;;;;;;;103.43;27.87;;;0.40;99.90;;;;;;5024829;28;20586;-52
2023/03/03 02:41:26;;;;;;;109.30;27.37;;;0.40;99.90;;;;;;5024401;28;20535;-53
2023/03/03 02:44:01;;;;;;;88.57;25.50;;;0.40;99.90;;;;;;5020752;28;20484;-53
2023/03/03 02:46:30;;;;;;;98.13;26.23;;;0.40;99.90;;;;;;5022843;28;20453;-53
2023/03/03 02:48:56;;;;;;;172.17;29.10;;;0.40;99.90;;;;;;5028551;28;20433;-52
2023/03/03 02:51:22;;;;;;;65.13;25.03;;;0.40;99.90;;;;;;5031059;28;20511;-53
2023/03/03 02:53:47;;;;;;;85.00;25.53;;;0.30;99.90;;;;;;5027926;28;20188;-53
2023/03/03 02:56:13;;;;;;;88.97;25.53;;;0.30;99.90;;;;;;5028255;28;20644;-53
2023/03/03 02:58:38;;;;;;;75.23;24.70;;;0.30;99.90;;;;;;5028060;28;20195;-53
2023/03/03 03:01:04;;;;;;;66.30;24.70;;;0.30;99.90;;;;;;5027666;28;20302;-52
2023/03/03 03:03:30;;;;;;;92.17;26.20;;;0.30;99.90;;;;;;5029191;28;20179;-53
2023/03/03 03:05:55;;;;;;;68.13;24.97;;;0.40;99.90;;;;;;5028488;28;20735;-53
2023/03/03 03:08:21;;;;;;;97.93;26.67;;;0.30;99.90;;;;;;5024850;28;20183;-53
2023/03/03 03:10:47;;;;;;;138.50;30.43;;;0.30;99.90;;;;;;5022472;28;20191;-53
2023/03/03 03:13:12;;;;;;;74.87;24.40;;;0.30;99.90;;;;;;5031649;28;20636;-52
2023/03/03 03:15:38;;;;;;;77.90;24.80;;;0.30;99.90;;;;;;5026340;28;20761;-53
2023/03/03 03:18:04;;;;;;;60.07;23.37;;;0.30;99.90;;;;;;5026710;28;20205;-53
2023/03/03 03:20:29;;;;;;;139.97;25.13;;;0.20;99.90;;;;;;5026080;28;20212;-53
2023/03/03 03:22:55;;;;;;;127.43;25.93;;;0.20;99.90;;;;;;5027564;28;20237;-52
2023/03/03 03:25:21;;;;;;;103.77;26.50;;;0.20;99.90;;;;;;5028296;28;20195;-53
2023/03/03 03:27:46;;;;;;;67.87;26.33;;;0.10;99.90;;;;;;5026482;28;20192;-53
2023/03/03 03:30:12;;;;;;;85.17;24.83;;;0.10;99.90;;;;;;5028244;28;20216;-52
2023/03/03 03:32:38;;;;;;;79.10;26.43;;;0.10;99.90;;;;;;5026231;28;20213;-53
2023/03/03 03:35:03;;;;;;;109.37;26.50;;;0.20;99.90;;;;;;5028127;28;20211;-53
2023/03/03 03:37:29;;;;;;;102.93;26.60;;;0.20;99.90;;;;;;5027284;28;20525;-53
2023/03/03 03:39:55;;;;;;;141.67;26.27;;;0.20;99.90;;;;;;5028065;28;20215;-53
2023/03/03 03:42:21;;;;;;;124.57;24.80;;;0.10;99.90;;;;;;5027224;28;20191;-53
2023/03/03 03:44:46;;;;;;;76.20;23.70;;;0.10;99.90;;;;;;5027059;28;20657;-52
2023/03/03 03:47:12;;;;;;;93.00;24.70;;;0.00;99.90;;;;;;5027888;28;20207;-53
2023/03/03 03:49:37;;;;;;;98.00;27.17;;;0.10;99.90;;;;;;5025742;28;20214;-53
2023/03/03 03:52:03;;;;;;;87.00;23.70;;;0.00;99.90;;;;;;5028035;28;20186;-53
2023/03/03 03:54:29;;;;;;;71.83;26.20;;;0.10;99.90;;;;;;5026375;28;20553;-53
2023/03/03 03:56:54;;;;;;;83.17;24.20;;;0.00;99.90;;;;;;5025799;28;20184;-53
2023/03/03 03:59:20;;;;;;;103.97;26.27;;;0.10;99.90;;;;;;5025811;28;20595;-53
2023/03/03 04:01:47;;;;;;;86.67;25.63;;;0.00;99.90;;;;;;5027501;28;20691;-53
2023/03/03 04:04:12;;;;;;;61.97;22.47;;;0.00;99.90;;;;;;5027745;28;20192;-53
2023/03/03 04:06:38;;;;;;;103.67;23.93;;;-0.10;99.90;;;;;;5028336;28;20583;-52
2023/03/03 04:09:04;;;;;;;94.07;24.47;;;-0.10;99.90;;;;;;5030502;28;20278;-53
2023/03/03 04:11:30;;;;;;;59.70;22.87;;;-0.10;99.90;;;;;;5030567;28;20535;-53
2023/03/03 04:13:56;;;;;;;63.23;23.87;;;-0.10;99.90;;;;;;5028834;28;20194;-53
2023/03/03 04:16:21;;;;;;;94.00;24.73;;;-0.10;99.90;;;;;;5025423;28;20443;-53
2023/03/03 04:18:47;;;;;;;69.47;24.37;;;-0.10;99.90;;;;;;5026990;28;20188;-53
2023/03/03 04:21:13;;;;;;;74.73;25.20;;;0.00;99.90;;;;;;5026789;28;20230;-52
2023/03/03 04:23:39;;;;;;;50.93;23.07;;;0.00;99.90;;;;;;5025649;28;20287;-53
2023/03/03 04:26:05;;;;;;;73.13;23.10;;;0.10;99.90;;;;;;5027021;28;20521;-53
2023/03/03 04:28:30;;;;;;;54.03;23.20;;;0.10;99.90;;;;;;5027109;28;20438;-53
2023/03/03 04:30:56;;;;;;;54.53;23.53;;;0.00;99.90;;;;;;5026925;28;20186;-53
2023/03/03 04:33:21;;;;;;;61.07;24.40;;;0.00;99.90;;;;;;5026369;28;20184;-52
2023/03/03 04:35:47;;;;;;;71.47;24.37;;;-0.10;99.90;;;;;;5025866;28;20184;-52
2023/03/03 04:38:13;;;;;;;82.17;23.83;;;0.00;99.90;;;;;;5027226;28;20194;-53
2023/03/03 04:40:42;;;;;;;52.73;23.60;;;0.00;99.90;;;;;;5025151;28;20749;-53
2023/03/03 04:43:09;;;;;;;50.30;22.97;;;0.00;99.90;;;;;;5023478;28;20305;-52
2023/03/03 04:45:34;;;;;;;58.70;23.27;;;0.00;99.90;;;;;;5023773;28;20910;-52
2023/03/03 04:48:00;;;;;;;51.93;23.17;;;0.00;99.90;;;;;;5027327;28;20464;-52
2023/03/03 04:50:26;;;;;;;67.33;24.60;;;0.00;99.90;;;;;;5026761;28;20280;-53
2023/03/03 04:52:52;;;;;;;68.87;25.30;;;0.00;99.90;;;;;;5026425;28;20194;-52
2023/03/03 04:55:17;;;;;;;61.90;22.47;;;0.00;99.90;;;;;;5026721;28;20808;-53
2023/03/03 04:57:43;;;;;;;53.73;23.17;;;0.10;99.90;;;;;;5025691;28;20179;-53
2023/03/03 05:00:12;;;;;;;60.07;24.47;;;0.10;99.90;;;;;;5027752;28;20192;-53
2023/03/03 05:02:38;;;;;;;70.30;25.20;;;0.10;99.90;;;;;;5024876;28;20195;-53
2023/03/03 05:05:05;;;;;;;50.20;23.60;;;0.10;99.90;;;;;;5027401;28;20481;-52
2023/03/03 05:07:30;;;;;;;68.67;24.90;;;0.10;99.90;;;;;;5027149;28;20957;-53
2023/03/03 05:09:56;;;;;;;83.50;25.47;;;0.20;99.90;;;;;;5024435;28;20439;-53
2023/03/03 05:12:21;;;;;;;60.40;24.07;;;0.20;99.90;;;;;;5022594;28;20527;-53
2023/03/03 05:14:47;;;;;;;61.10;24.13;;;0.20;99.90;;;;;;5026500;28;20197;-53
2023/03/03 05:17:13;;;;;;;71.83;23.07;;;0.20;99.90;;;;;;5026419;28;20265;-53
2023/03/03 05:19:39;;;;;;;85.00;24.30;;;0.20;99.90;;;;;;5024908;28;20222;-53
2023/03/03 05:22:05;;;;;;;94.60;24.63;;;0.10;99.90;;;;;;5025243;28;20641;-52
2023/03/03 05:24:30;;;;;;;83.80;22.10;;;0.10;99.90;;;;;;5024539;28;20966;-53
2023/03/03 05:26:56;;;;;;;50.40;23.63;;;0.10;99.90;;;;;;5025184;28;20432;-52
2023/03/03 05:29:22;;;;;;;58.50;24.00;;;0.10;99.90;;;;;;5027648;28;20248;-53
2023/03/03 05:31:47;;;;;;;69.73;24.43;;;0.10;99.90;;;;;;5026301;28;20191;-53
2023/03/03 05:34:13;;;;;;;58.97;24.97;;;0.10;99.90;;;;;;5025990;28;20194;-52
2023/03/03 05:36:39;;;;;;;60.80;24.50;;;0.20;99.90;;;;;;5025519;28;20195;-53
2023/03/03 05:39:04;;;;;;;57.83;24.37;;;0.20;99.90;;;;;;5024092;28;20190;-53
2023/03/03 05:41:30;;;;;;;54.47;24.10;;;0.30;99.90;;;;;;5026105;28;20484;-52
2023/03/03 05:43:56;;;;;;;91.73;23.43;;;0.20;99.90;;;;;;5024465;28;20731;-53
2023/03/03 05:46:21;;;;;;;48.10;23.20;;;0.20;99.90;;;;;;5025738;28;20189;-53
2023/03/03 05:48:47;;;;;;;60.50;24.77;;;0.20;99.90;;;;;;5026029;28;20701;-53
2023/03/03 05:51:12;;;;;;;92.67;25.97;;;0.20;99.90;;;;;;5024737;28;20195;-52
2023/03/03 05:53:38;;;;;;;65.03;23.30;;;0.20;99.90;;;;;;5025750;28;20183;-53
2023/03/03 05:56:04;;;;;;;71.33;23.80;;;0.20;99.90;;;;;;5024156;28;20249;-53
2023/03/03 05:58:30;;;;;;;74.03;24.17;;;0.20;99.90;;;;;;5026391;28;20297;-53
2023/03/03 06:00:55;;;;;;;54.63;22.50;;;0.20;99.90;;;;;;5022150;28;20226;-53
2023/03/03 06:03:21;;;;;;;75.57;23.70;;;0.20;99.90;;;;;;5024537;28;20256;-53
2023/03/03 06:05:47;;;;;;;75.87;24.00;;;0.20;99.90;;;;;;5024245;28;20224;-53
2023/03/03 06:08:13;;;;;;;63.37;23.00;;;0.20;99.90;;;;;;5025075;28;20430;-52
2023/03/03 06:10:38;;;;;;;51.47;23.40;;;0.20;99.90;;;;;;5027029;28;20438;-53
2023/03/03 06:13:04;;;;;;;53.73;22.17;;;0.20;99.90;;;;;;5023127;28;20184;-53
2023/03/03 06:15:30;;;;;;;67.20;23.40;;;0.20;99.90;;;;;;5024627;28;20192;-53
2023/03/03 06:17:55;;;;;;;63.07;23.23;;;0.30;99.90;;;;;;5023952;28;20194;-53
2023/03/03 06:20:21;;;;;;;61.07;23.67;;;0.30;99.90;;;;;;5025424;28;20309;-51
2023/03/03 06:22:46;;;;;;;63.70;23.83;;;0.30;99.90;;;;;;5026786;28;20195;-53
2023/03/03 06:25:12;;;;;;;73.07;23.83;;;0.30;99.90;;;;;;5025847;28;20278;-53
2023/03/03 06:27:37;;;;;;;61.87;23.33;;;0.30;99.90;;;;;;5031645;28;20191;-53
2023/03/03 06:30:04;;;;;;;75.93;24.47;;;0.30;99.90;;;;;;5028253;28;20646;-53
2023/03/03 06:32:29;;;;;;;51.63;23.10;;;0.30;99.90;;;;;;5029479;28;20180;-53
2023/03/03 06:34:55;;;;;;;65.77;23.30;;;0.30;99.90;;;;;;5028969;28;20517;-53
2023/03/03 06:37:20;;;;;;;59.03;21.70;;;0.30;99.90;;;;;;5029634;28;20188;-53
2023/03/03 06:39:46;;;;;;;63.87;24.33;;;0.40;99.90;;;;;;5027803;28;20195;-53
2023/03/03 06:42:11;;;;;;;53.47;23.37;;;0.40;99.90;;;;;;5029143;28;20212;-53
2023/03/03 06:44:37;;;;;;;49.87;23.50;;;0.40;99.90;;;;;;5030123;28;20238;-53
2023/03/03 06:47:03;;;;;;;49.77;21.97;;;0.40;99.90;;;;;;5029582;28;20203;-53
2023/03/03 06:49:28;;;;;;;69.57;22.83;;;0.50;99.90;;;;;;5030563;28;20184;-53
2023/03/03 06:51:55;;;;;;;84.80;22.20;;;0.50;99.90;;;;;;5028233;28;20284;-53
2023/03/03 06:54:26;;;;;;;63.03;22.97;;;0.50;99.90;;;;;;5027693;28;20198;-53
2023/03/03 06:56:57;;;;;;;58.43;20.70;;;0.40;99.90;;;;;;5027956;28;20422;-53
2023/03/03 06:59:23;;;;;;;63.03;21.53;;;0.50;99.90;;;;;;5032601;28;20441;-53
2023/03/03 07:01:49;;;;;;;104.70;20.80;;;0.50;99.90;;;;;;5027647;28;20486;-54
2023/03/03 07:04:18;;;;;;;82.87;21.50;;;0.50;99.90;;;;;;5028899;28;20211;-53
2023/03/03 07:06:44;;;;;;;72.00;21.13;;;0.50;99.90;;;;;;5028275;28;20438;-53
2023/03/03 07:09:24;;;;;;;52.97;21.10;;;0.50;99.90;;;;;;5028063;28;20941;-52
2023/03/03 07:11:51;;;;;;;52.97;20.20;;;0.50;99.90;;;;;;5025872;28;20456;-53
2023/03/03 07:14:18;;;;;;;83.10;22.63;;;0.60;99.90;;;;;;5025233;28;20488;-53
2023/03/03 07:16:44;;;;;;;53.03;20.53;;;0.60;99.90;;;;;;5024051;28;20450;-53
2023/03/03 07:19:33;;;;;;;42.80;20.07;;;0.60;99.90;;;;;;5028735;28;20430;-53
2023/03/03 07:22:12;;;;;;;37.53;18.60;;;0.60;99.90;;;;;;5028636;28;20481;-53
2023/03/03 07:24:37;;;;;;;48.33;19.80;;;0.70;99.90;;;;;;5027719;28;20771;-53
2023/03/03 07:27:08;;;;;;;45.33;19.37;;;0.70;99.90;;;;;;5027283;28;20465;-53
2023/03/03 07:29:39;;;;;;;39.83;19.73;;;0.80;99.90;;;;;;5029273;28;20192;-52
2023/03/03 07:32:24;;;;;;;65.47;20.53;;;0.80;99.90;;;;;;5023576;28;20448;-53
2023/03/03 07:34:52;;;;;;;70.80;21.50;;;0.80;99.90;;;;;;5030035;28;20434;-53
2023/03/03 07:37:34;;;;;;;45.43;20.10;;;0.80;99.90;;;;;;5029295;28;20967;-53
2023/03/03 07:40:05;;;;;;;60.93;20.40;;;0.80;99.90;;;;;;5028416;28;20886;-53
2023/03/03 07:42:40;;;;;;;55.63;19.87;;;0.80;99.90;;;;;;5029046;28;20454;-53
2023/03/03 07:45:29;;;;;;;72.23;18.60;;;0.80;99.90;;;;;;5028155;28;20529;-53
2023/03/03 07:48:12;;;;;;;47.03;18.53;;;0.80;99.90;;;;;;5026054;28;20525;-53
2023/03/03 07:50:39;;;;;;;32.30;17.30;;;0.80;99.90;;;;;;5027142;28;20795;-53
2023/03/03 07:53:14;;;;;;;60.07;17.90;;;0.90;99.90;;;;;;5028664;28;20442;-53
2023/03/03 07:55:40;;;;;;;44.97;19.17;;;0.90;99.90;;;;;;5026631;28;20433;-53
2023/03/03 07:58:13;;;;;;;36.30;17.60;;;1.00;99.90;;;;;;5027985;28;20834;-53
2023/03/03 08:00:39;;;;;;;33.40;16.33;;;1.00;99.90;;;;;;5025583;28;20521;-52
2023/03/03 08:03:19;;;;;;;48.00;16.97;;;1.10;99.90;;;;;;5027077;28;20874;-53
2023/03/03 08:05:49;;;;;;;32.37;16.73;;;1.00;99.90;;;;;;5027153;28;20706;-52
2023/03/03 08:08:32;;;;;;;41.13;17.20;;;1.10;99.90;;;;;;5029248;28;20523;-53
2023/03/03 08:10:59;;;;;;;46.33;17.50;;;1.20;99.90;;;;;;5024575;28;20527;-53
2023/03/03 08:13:28;;;;;;;73.70;19.63;;;1.20;99.90;;;;;;5027871;28;20502;-53
2023/03/03 08:16:28;;;;;;;33.80;16.30;;;1.20;99.90;;;;;;5026175;28;20478;-52
2023/03/03 08:19:03;;;;;;;65.27;16.70;;;1.10;99.90;;;;;;5023495;28;20446;-53
2023/03/03 08:21:30;;;;;;;29.90;16.50;;;1.10;99.90;;;;;;5026770;28;20575;-52
2023/03/03 08:23:56;;;;;;;48.07;16.03;;;1.10;99.90;;;;;;5027443;28;20513;-52
2023/03/03 08:26:24;;;;;;;49.73;14.30;;;1.20;99.90;;;;;;5025064;28;20822;-53
2023/03/03 08:28:50;;;;;;;60.23;16.00;;;1.20;99.90;;;;;;5027463;28;20495;-53
2023/03/03 08:31:16;;;;;;;69.00;16.00;;;1.20;99.90;;;;;;5024340;28;20947;-53
2023/03/03 08:33:43;;;;;;;25.40;13.90;;;1.20;99.90;;;;;;5026186;28;20980;-53
2023/03/03 08:36:09;;;;;;;44.27;15.10;;;1.40;99.90;;;;;;5026305;28;20435;-53
2023/03/03 08:38:35;;;;;;;39.97;14.80;;;1.40;99.90;;;;;;5026575;28;20431;-52
2023/03/03 08:41:01;;;;;;;31.93;15.73;;;1.50;99.90;;;;;;5028430;28;20476;-53
2023/03/03 08:43:27;;;;;;;44.00;16.07;;;1.70;99.90;;;;;;5026228;28;20270;-53
2023/03/03 08:45:56;;;;;;;33.03;15.60;;;1.80;99.90;;;;;;5027900;28;20441;-53
2023/03/03 08:48:22;;;;;;;33.90;17.13;;;1.90;99.90;;;;;;5028041;28;20441;-53
2023/03/03 08:50:48;;;;;;;36.20;17.40;;;2.00;99.90;;;;;;5025831;28;20823;-52
2023/03/03 08:53:14;;;;;;;38.67;16.47;;;2.00;99.90;;;;;;5027083;28;20580;-53
2023/03/03 08:55:41;;;;;;;34.43;15.60;;;2.10;99.90;;;;;;5028190;28;20188;-53
2023/03/03 08:58:07;;;;;;;46.13;16.13;;;2.20;99.90;;;;;;5025610;28;20474;-51
2023/03/03 09:00:33;;;;;;;33.87;16.03;;;2.20;99.90;;;;;;5026049;28;20521;-53
2023/03/03 09:02:59;;;;;;;41.83;16.20;;;2.20;99.90;;;;;;5024158;28;20590;-52
2023/03/03 09:05:25;;;;;;;32.80;16.23;;;2.20;99.90;;;;;;5026978;28;20437;-53
2023/03/03 09:07:51;;;;;;;34.23;17.17;;;2.20;92.00;;;;;;5026087;28;20244;-53
2023/03/03 09:10:26;;;;;;;41.17;16.83;;;2.20;54.50;;;;;;5026282;28;20528;-53
2023/03/03 09:12:52;;;;;;;52.47;17.50;;;2.10;19.80;;;;;;5026557;28;20433;-53
2023/03/03 09:15:20;;;;;;;37.20;17.80;;;2.10;6.10;;;;;;5025509;28;20445;-52
2023/03/03 09:17:46;;;;;;;43.90;18.00;;;2.10;1.00;;;;;;5026603;28;20438;-53
2023/03/03 09:20:36;;;;;;;58.03;20.83;;;2.10;1.00;;;;;;5026622;28;20430;-52
2023/03/03 09:23:20;;;;;;;55.90;21.87;;;2.00;1.00;;;;;;5027242;28;20537;-53
2023/03/03 09:25:45;;;;;;;50.93;21.67;;;2.10;1.00;;;;;;5027517;28;20448;-53
2023/03/03 09:28:25;;;;;;;55.90;21.83;;;2.10;1.00;;;;;;5025325;28;20435;-52
2023/03/03 09:30:52;;;;;;;54.50;22.47;;;2.20;1.00;;;;;;5023403;28;20196;-52
2023/03/03 09:33:45;;;;;;;64.63;24.43;;;2.40;7.30;;;;;;5027624;28;20455;-52
2023/03/03 09:36:25;;;;;;;56.33;23.40;;;2.50;14.40;;;;;;5025524;28;20977;-52
2023/03/03 09:38:52;;;;;;;51.40;20.77;;;2.50;1.00;;;;;;5026081;28;20525;-52
2023/03/03 09:41:52;;;;;;;51.10;23.37;;;2.50;1.00;;;;;;5025950;28;20516;-53
2023/03/03 09:44:41;;;;;;;50.87;22.67;;;2.50;1.00;;;;;;5023114;28;20485;-52
2023/03/03 09:47:16;;;;;;;46.50;21.93;;;2.60;1.00;;;;;;5024723;28;20467;-52
2023/03/03 09:50:00;;;;;;;53.97;22.90;;;2.60;1.00;;;;;;5022359;28;20473;-52
2023/03/03 09:52:44;;;;;;;56.43;21.17;;;2.60;1.00;;;;;;5026236;28;20439;-52
2023/03/03 09:55:43;;;;;;;64.40;25.93;;;2.60;1.00;;;;;;5025855;28;20447;-53
2023/03/03 09:58:28;;;;;;;49.77;20.50;;;2.70;1.00;;;;;;5022811;28;20446;-52
2023/03/03 10:01:10;;;;;;;56.90;20.93;;;2.80;1.00;;;;;;5023733;28;20480;-53
2023/03/03 10:03:39;;;;;;;46.23;17.97;;;2.80;1.00;;;;;;5023962;28;20491;-52
2023/03/03 10:06:19;;;;;;;51.17;20.23;;;2.80;1.00;;;;;;5024628;28;20450;-52
2023/03/03 10:09:02;;;;;;;49.27;19.87;;;2.90;1.00;;;;;;5024127;28;20520;-51
2023/03/03 10:11:44;;;;;;;49.20;20.23;;;3.00;1.00;;;;;;5023281;28;20462;-51
2023/03/03 10:14:18;;;;;;;50.13;21.23;;;3.20;1.00;;;;;;5023050;28;20457;-51
2023/03/03 10:17:01;;;;;;;45.50;20.20;;;3.20;1.00;;;;;;5025475;28;20427;-51
2023/03/03 10:19:36;;;;;;;39.33;18.43;;;3.30;1.00;;;;;;5025727;28;20466;-51
2023/03/03 10:22:19;;;;;;;43.40;19.03;;;3.40;1.00;;;;;;5023353;28;20568;-51
2023/03/03 10:25:12;;;;;;;42.80;19.47;;;3.40;99.90;;;;;;5024222;28;20439;-51
2023/03/03 10:27:56;;;;;;;49.53;19.40;;;3.50;99.90;;;;;;5023197;28;20500;-51
2023/03/03 10:30:27;;;;;;;45.10;18.50;;;3.40;99.90;;;;;;5022083;28;20453;-51
2023/03/03 10:33:10;;;;;;;37.47;16.17;;;3.40;99.90;;;;;;5026491;28;20438;-51
2023/03/03 10:35:59;;;;;;;33.27;15.50;;;3.40;99.90;;;;;;5028016;28;20426;-51
2023/03/03 10:38:40;;;;;;;27.87;13.93;;;3.50;99.90;;;;;;5026701;28;20441;-51
2023/03/03 10:41:25;;;;;;;30.00;13.10;;;3.50;99.90;;;;;;5026429;28;20810;-51
2023/03/03 10:44:28;;;;;;;29.57;13.77;;;3.50;99.90;;;;;;5023356;28;20534;-52
2023/03/03 10:47:19;;;;;;;31.63;13.63;;;3.70;99.90;;;;;;5022722;28;20431;-51
2023/03/03 10:49:58;;;;;;;36.70;14.73;;;3.80;99.90;;;;;;5007954;28;20489;-51
2023/03/03 10:52:41;;;;;;;28.07;14.27;;;3.80;99.90;;;;;;5024701;28;20449;-51
2023/03/03 10:55:20;;;;;;;32.80;15.87;;;3.80;99.90;;;;;;5024049;28;21278;-51
2023/03/03 10:57:53;;;;;;;34.53;16.23;;;4.00;99.90;;;;;;5023721;28;20491;-51
2023/03/03 11:00:25;;;;;;;36.77;16.50;;;4.00;99.90;;;;;;5021065;28;20460;-51
2023/03/03 11:03:13;;;;;;;34.07;16.27;;;4.00;85.50;;;;;;5024347;28;20451;-51
2023/03/03 11:06:02;;;;;;;31.80;15.80;;;4.10;42.20;;;;;;5024252;28;20438;-51
2023/03/03 11:08:40;;;;;;;35.37;16.60;;;4.00;1.00;;;;;;5023693;28;20462;-51
2023/03/03 11:11:39;;;;;;;38.83;17.47;;;4.00;78.90;;;;;;5027786;28;20445;-51
2023/03/03 11:14:14;;;;;;;32.77;16.67;;;4.00;99.90;;;;;;5027515;28;20799;-51
2023/03/03 11:17:13;;;;;;;40.37;18.20;;;4.00;99.90;;;;;;5025336;28;20445;-51
2023/03/03 11:19:45;;;;;;;36.83;19.07;;;4.10;99.90;;;;;;5027124;28;20775;-51
2023/03/03 11:22:24;;;;;;;34.60;18.27;;;4.20;99.90;;;;;;5029093;28;20476;-51
2023/03/03 11:25:08;;;;;;;37.17;17.40;;;4.20;99.90;;;;;;5027898;28;20434;-51
2023/03/03 11:27:58;;;;;;;37.70;17.37;;;4.40;99.90;;;;;;5027313;28;20937;-51
2023/03/03 11:30:29;;;;;;;36.87;17.70;;;4.30;1.00;;;;;;5026370;28;21038;-51
2023/03/03 11:33:13;;;;;;;36.07;18.03;;;4.30;1.00;;;;;;5027248;28;20471;-51
2023/03/03 11:35:49;;;;;;;34.63;17.37;;;4.40;1.00;;;;;;5025803;28;20458;-51
2023/03/03 11:38:26;;;;;;;33.53;16.57;;;4.50;23.30;;;;;;5028735;28;20433;-51
2023/03/03 11:40:52;;;;;;;30.93;16.57;;;4.70;83.50;;;;;;5026553;28;20833;-51
2023/03/03 11:43:31;;;;;;;33.03;15.30;;;4.80;79.50;;;;;;5027733;28;20487;-51
2023/03/03 11:46:09;;;;;;;32.70;15.93;;;4.90;15.10;;;;;;5024331;28;20192;-51
2023/03/03 11:48:42;;;;;;;30.30;15.03;;;5.00;1.00;;;;;;5027174;28;20934;-51
2023/03/03 11:51:49;;;;;;;31.17;16.00;;;5.00;1.00;;;;;;5027379;28;20436;-51
2023/03/03 11:54:25;;;;;;;31.37;15.00;;;5.00;99.90;;;;;;4990423;28;20489;-51
2023/03/03 11:56:57;;;;;;;31.07;14.93;;;5.10;99.90;;;;;;5023085;28;20939;-51
2023/03/03 11:59:58;;;;;;;33.73;16.70;;;5.20;99.90;;;;;;5027313;28;20435;-51
2023/03/03 12:02:42;;;;;;;30.00;15.60;;;5.30;99.90;;;;;;5025055;28;20474;-51
2023/03/03 12:05:16;;;;;;;38.70;17.47;;;5.40;99.90;;;;;;5026766;28;20439;-51
2023/03/03 12:08:15;;;;;;;30.83;15.13;;;5.50;99.90;;;;;;5023975;28;20954;-51
2023/03/03 12:10:52;;;;;;;32.57;15.30;;;5.70;99.90;;;;;;5024893;28;20436;-51
2023/03/03 12:13:49;;;;;;;35.50;16.10;;;5.80;1.00;;;;;;5028141;28;20483;-51
2023/03/03 12:16:31;;;;;;;31.07;14.50;;;6.10;1.00;;;;;;5024128;28;20435;-51
2023/03/03 12:19:15;;;;;;;35.13;13.93;;;6.30;99.90;;;;;;5027395;28;20436;-51
2023/03/03 12:22:25;;;;;;;32.40;13.07;;;6.50;99.90;;;;;;5025497;28;20467;-51
2023/03/03 12:25:07;;;;;;;27.93;12.73;;;6.60;99.90;;;;;;5024036;28;20509;-52
2023/03/03 12:27:48;;;;;;;30.70;12.40;;;6.50;99.90;;;;;;5029020;28;20450;-52
2023/03/03 12:30:28;;;;;;;29.03;12.53;;;6.30;99.90;;;;;;5026253;28;20441;-52
2023/03/03 12:32:59;;;;;;;28.40;12.90;;;6.20;1.00;;;;;;5026983;28;21112;-52
2023/03/03 12:35:49;;;;;;;19.13;10.40;;;6.30;99.90;;;;;;5027078;28;20449;-52
2023/03/03 12:38:50;;;;;;;20.93;10.03;;;6.20;99.90;;;;;;5024908;28;20474;-51
2023/03/03 12:41:38;;;;;;;22.97;10.20;;;6.20;1.00;;;;;;5024688;28;20812;-51
2023/03/03 12:44:32;;;;;;;22.60;8.80;;;6.40;99.90;;;;;;5024154;28;20884;-52
2023/03/03 12:47:27;;;;;;;18.57;8.00;;;6.50;1.00;;;;;;5024598;28;20485;-52
2023/03/03 12:50:11;;;;;;;20.40;8.50;;;6.50;1.00;;;;;;5024570;28;20995;-52
2023/03/03 12:53:27;;;;;;;14.03;7.73;;;6.50;99.90;;;;;;5025531;28;20521;-52
2023/03/03 12:56:15;;;;;;;16.40;7.00;;;6.50;99.90;;;;;;4998292;28;20456;-52
2023/03/03 12:59:12;;;;;;;18.20;7.13;;;6.50;1.00;;;;;;5024339;28;20967;-51
2023/03/03 13:01:59;;;;;;;14.70;6.67;;;6.50;58.30;;;;;;5025740;28;20475;-52